METAR AND TAF INFORMATION
METAR FOR KPVC
ADDS - METARS form results

(1738 UTC 24 February 2020)
Data provider http://aviationweather.gov/metar/data/
 
METAR text: KPVC 241656Z AUTO 19011KT 10SM CLR 11/03 A3005 RMK AO2 SLP176 T01060028
Conditions at: KPVC (PROVINCETOWN , MA, US) observed 1656 UTC 24 February 2020
Temperature: 10.6°C (51°F)
Dewpoint: 2.8°C (37°F) [RH = 58%]
Pressure (altimeter): 30.05 inches Hg (1017.7 mb)
[Sea-level pressure: 1017.6 mb]
Winds: from the S (190 degrees) at 13 MPH (11 knots; 5.7 m/s)
Visibility: 10 or more miles (16+ km)
Ceiling: at least 12,000 feet AGL
Clouds: sky clear below 12,000 feet AGL
Weather: automated observation with no human augmentation;
there may or may not be significant weather present at this time

 AIRPORT MAP

 RUNWAY INFORMATION
Runway 07 Runway length 3500 ft Runway width 100 ft
Runway elevation 9 ft Runway displaced threshold 0 ft Runway heading 59
Runway 25 Runway length 3500 ft Runway width 100 ft
Runway elevation 9 ft Runway displaced threshold 0 ft Runway heading 239

 AIRPORT FREQUENCIES
Type A/D Name CAPE APP/D Frequency 118.2 MHZ
Type AWOS Name AWOS 3 Frequency 119.025 MHZ
Type CLD Name OTIS CLNC Frequency 120.65 MHZ
Type UNIC Name CTAF/UNICO Frequency 122.8 MHZ

 AIRPORT NEAR NAVIGATION AIDS



Copyright © 2020 Cape Air Virtual

CMS powered by VAM [v2.6.2]